Mahtowa, Minnesota
Current Conditions -  °F | °C
As of 2:13 AM on Friday 28 Nov 2014 (Local Time) from KMZH Reporting Station
Light Snow Light Snow  
Wind Chill:   Ceiling: 9000
Heat Index:   Visibility: 4mi
Dew Point:   Wind: 0mph
Humidity: 79%   Direction: NA
Pressure: 30.14"   Gusts: NA
Location:  46.5379°N, 92.621°W
Report Text: KMZH 280813Z AUTO 00000KT 4SM -SN OVC090 M13/M16 A3014 RMK AO2
Loading
Personal Weather Stations






























Interactive Weather Map New forecast layout! Learn more

10-Day Weather Forecast

Advertisements
Track Severe Weather on mobile